Terminal Aerodrome Forecast
Issued by NWS Melbourne, FL

Home | Current Version | Previous Version | Text Only | Print | Product List | Glossary On
Versions: 1 2 3 4 5 6 7 8 9 10 11 12 13 14 15 16 17 18 19 20 21
000
FTUS42 KMLB 060210 AAA
TAFDAB
TAF AMD
KDAB 060210Z 0602/0624 VRB03KT P6SM FEW025 SCT100 OVC150
     FM060600 00000KT P6SM SCT120 BKN250
     FM061400 19005KT P6SM SCT025 SCT250
     FM061800 09007KT P6SM VCTS SCT035CB BKN250=

USA.gov is the U.S. government's official web portal to all federal, state and local government web resources and services.